Time;durP1;ratioP1;P1;durP2;ratioP2;P2;SDS_P1;SDS_P2;PMS_P1;PMS_P2;Temp;Humidity;BMP_temperature;BMP_pressure;BME280_temperature;BME280_humidity;BME280_pressure;Samples;Min_cycle;Max_cycle;Signal;HPM_P1;HPM_P2
2023/09/16 00:00:19;;;;;;;;;;;;;;;-140.72;100.00;52601.91;5075416;28;19921;-70
2023/09/16 00:02:44;;;;;;;;;;;;;;;-140.72;100.00;52605.94;5073757;28;19920;-70
2023/09/16 00:05:12;;;;;;;;;;;;;;;-140.72;100.00;52622.19;5055988;28;19917;-70
2023/09/16 00:07:37;;;;;;;;;;;;;;;-140.72;100.00;52614.06;5064169;28;19927;-70
2023/09/16 00:10:02;;;;;;;;;;;;;;;-140.72;100.00;52616.09;5073823;28;19920;-70
2023/09/16 00:12:29;;;;;;;;;;;;;;;-140.72;100.00;52618.13;5065668;28;20260;-70
2023/09/16 00:14:54;;;;;;;;;;;;;;;-140.72;100.00;52648.56;5058983;28;19960;-70
2023/09/16 00:17:36;;;;;;;;;;;;;;;-140.72;100.00;52626.25;5065744;28;19925;-70
2023/09/16 00:20:11;;;;;;;;;;;;;;;-140.72;100.00;52612.03;5071261;28;19920;-70
2023/09/16 00:22:36;;;;;;;;;;;;;;;-140.72;100.00;52632.34;5062744;28;19921;-70
2023/09/16 00:25:02;;;;;;;;;;;;;;;-140.72;100.00;52654.66;5061388;28;19920;-70
2023/09/16 00:27:27;;;;;;;;;;;;;;;-140.72;100.00;52605.94;5070297;28;19920;-70
2023/09/16 00:29:52;;;;;;;;;;;;;;;-140.72;100.00;52612.03;5060967;28;20008;-70
2023/09/16 00:32:17;;;;;;;;;;;;;;;-140.72;100.00;52640.44;5072930;28;20039;-70
2023/09/16 00:34:43;;;;;;;;;;;;;;;-140.72;100.00;52660.75;5072383;28;19963;-69
2023/09/16 00:37:08;;;;;;;;;;;;;;;-140.72;100.00;52618.13;5057334;28;19935;-70
2023/09/16 00:39:33;;;;;;;;;;;;;;;-140.72;100.00;52640.44;5064355;28;19935;-69
2023/09/16 00:42:06;;;;;;;;;;;;;;;-140.72;100.00;52642.47;5061289;28;19921;-70
2023/09/16 00:44:31;;;;;;;;;;;;;;;-140.72;100.00;52618.13;5074064;28;19970;-70
2023/09/16 00:46:56;;;;;;;;;;;;;;;-140.72;100.00;52622.19;5061588;28;19920;-69
2023/09/16 00:49:22;;;;;;;;;;;;;;;-140.72;100.00;52632.34;5075546;28;19970;-69
2023/09/16 00:51:47;;;;;;;;;;;;;;;-140.72;100.00;52650.59;5073679;28;19920;-71
2023/09/16 00:54:12;;;;;;;;;;;;;;;-140.72;100.00;52640.44;5070795;28;20009;-70
2023/09/16 00:56:38;;;;;;;;;;;;;;;-140.72;100.00;52638.41;5068704;28;19916;-70
2023/09/16 00:59:04;;;;;;;;;;;;;;;-140.72;100.00;52642.47;5062812;28;19920;-70
2023/09/16 01:01:30;;;;;;;;;;;;;;;-140.72;100.00;52630.31;5065356;28;20394;-70
2023/09/16 01:03:55;;;;;;;;;;;;;;;-140.72;100.00;52640.44;5077316;28;20278;-70
2023/09/16 01:06:21;;;;;;;;;;;;;;;-140.72;100.00;52628.28;5080733;28;19916;-70
2023/09/16 01:08:46;;;;;;;;;;;;;;;-140.72;100.00;52610.00;5066197;28;19927;-70
2023/09/16 01:11:11;;;;;;;;;;;;;;;-140.72;100.00;52622.19;5072919;28;20011;-70
2023/09/16 01:13:38;;;;;;;;;;;;;;;-140.72;100.00;52618.13;5080947;28;19966;-70
2023/09/16 01:16:10;;;;;;;;;;;;;;;-140.72;100.00;52626.25;5068729;28;20007;-70
2023/09/16 01:18:38;;;;;;;;;;;;;;;-140.72;100.00;52644.50;5073231;28;20579;-69
2023/09/16 01:21:08;;;;;;;;;;;;;;;-140.72;100.00;52632.34;5068829;28;19916;-70
2023/09/16 01:23:34;;;;;;;;;;;;;;;-140.72;100.00;52634.38;5061531;28;19921;-70
2023/09/16 01:25:59;;;;;;;;;;;;;;;-140.72;100.00;52622.19;5073389;28;19927;-69
2023/09/16 01:29:01;;;;;;;;;;;;;;;-140.72;100.00;52652.63;5057358;28;19967;-70
2023/09/16 01:31:26;;;;;;;;;;;;;;;-140.72;100.00;52616.09;5071721;28;19928;-70
2023/09/16 01:33:55;;;;;;;;;;;;;;;-140.72;100.00;52642.47;5062271;28;19921;-70
2023/09/16 01:36:25;;;;;;;;;;;;;;;-140.72;100.00;52638.41;5066226;28;20091;-70
2023/09/16 01:38:53;;;;;;;;;;;;;;;-140.72;100.00;52648.56;5071633;28;19931;-70
2023/09/16 01:41:19;;;;;;;;;;;;;;;-140.72;100.00;52638.41;5073111;28;20452;-70
2023/09/16 01:43:45;;;;;;;;;;;;;;;-140.72;100.00;52618.13;5068618;28;19927;-70
2023/09/16 01:46:10;;;;;;;;;;;;;;;-140.72;100.00;52638.41;5056134;28;19925;-70
2023/09/16 01:48:35;;;;;;;;;;;;;;;-140.72;100.00;52636.38;5069012;28;20383;-70
2023/09/16 01:51:01;;;;;;;;;;;;;;;-140.72;100.00;52628.28;5064358;28;19923;-70
2023/09/16 01:53:26;;;;;;;;;;;;;;;-140.72;100.00;52605.94;5071555;28;20394;-70
2023/09/16 01:55:51;;;;;;;;;;;;;;;-140.72;100.00;52650.59;5071915;28;19928;-69
2023/09/16 01:58:17;;;;;;;;;;;;;;;-140.72;100.00;52642.47;5070654;28;20003;-70
2023/09/16 02:00:42;;;;;;;;;;;;;;;-140.72;100.00;52630.31;5071115;28;19927;-70
2023/09/16 02:03:08;;;;;;;;;;;;;;;-140.72;100.00;52614.06;5065220;28;19962;-70
2023/09/16 02:05:33;;;;;;;;;;;;;;;-140.72;100.00;52634.38;5075999;28;19916;-70
2023/09/16 02:07:59;;;;;;;;;;;;;;;-140.72;100.00;52597.84;5077701;28;19916;-70
2023/09/16 02:10:25;;;;;;;;;;;;;;;-140.72;100.00;52640.44;5086553;28;20329;-70
2023/09/16 02:12:51;;;;;;;;;;;;;;;-140.72;100.00;52612.03;5071223;28;19916;-70
2023/09/16 02:15:17;;;;;;;;;;;;;;;-140.72;100.00;52624.22;5075642;28;19927;-70
2023/09/16 02:17:52;;;;;;;;;;;;;;;-140.72;100.00;52618.13;5065621;28;20302;-71
2023/09/16 02:20:18;;;;;;;;;;;;;;;-140.72;100.00;52634.38;5081594;28;19920;-70
2023/09/16 02:22:44;;;;;;;;;;;;;;;-140.72;100.00;52687.13;5070704;28;19940;-68
2023/09/16 02:25:09;;;;;;;;;;;;;;;-140.72;100.00;52644.50;5066609;28;19931;-70
2023/09/16 02:27:34;;;;;;;;;;;;;;;-140.72;100.00;52616.09;5069762;28;19917;-70
2023/09/16 02:30:00;;;;;;;;;;;;;;;-140.72;100.00;52646.53;5070976;28;19933;-70
2023/09/16 02:32:25;;;;;;;;;;;;;;;-140.72;100.00;52658.72;5081196;28;20011;-70
2023/09/16 02:34:50;;;;;;;;;;;;;;;-140.72;100.00;52670.88;5066940;28;19921;-70
2023/09/16 02:37:15;;;;;;;;;;;;;;;-140.72;100.00;52644.50;5065983;28;19920;-70
2023/09/16 02:39:40;;;;;;;;;;;;;;;-140.72;100.00;52636.38;5072496;28;20260;-71
2023/09/16 02:42:06;;;;;;;;;;;;;;;-140.72;100.00;52648.56;5074588;28;20314;-70
2023/09/16 02:44:31;;;;;;;;;;;;;;;-140.72;100.00;52640.44;5073507;28;20367;-69
2023/09/16 02:46:56;;;;;;;;;;;;;;;-140.72;100.00;52601.91;5074378;28;20260;-69
2023/09/16 02:49:21;;;;;;;;;;;;;;;-140.72;100.00;52654.66;5075179;28;19921;-69
2023/09/16 02:51:47;;;;;;;;;;;;;;;-140.72;100.00;52626.25;5061096;28;20295;-70
2023/09/16 02:54:12;;;;;;;;;;;;;;;-140.72;100.00;52634.38;5075420;28;19920;-70
2023/09/16 02:56:38;;;;;;;;;;;;;;;-140.72;100.00;52632.34;5075824;28;19923;-70
2023/09/16 02:59:03;;;;;;;;;;;;;;;-140.72;100.00;52662.78;5071976;28;19928;-70
2023/09/16 03:01:28;;;;;;;;;;;;;;;-140.72;100.00;52646.53;5073637;28;19923;-70
2023/09/16 03:03:53;;;;;;;;;;;;;;;-140.72;100.00;52640.44;5063934;28;20271;-70
2023/09/16 03:06:19;;;;;;;;;;;;;;;-140.72;100.00;52646.53;5069511;28;19927;-70
2023/09/16 03:08:44;;;;;;;;;;;;;;;-140.72;100.00;52654.66;5078197;28;19916;-70
2023/09/16 03:11:10;;;;;;;;;;;;;;;-140.72;100.00;52662.78;5078186;28;20394;-70
2023/09/16 03:13:35;;;;;;;;;;;;;;;-140.72;100.00;52648.56;5076311;28;20370;-70
2023/09/16 03:16:20;;;;;;;;;;;;;;;-140.72;100.00;52642.47;5073998;28;20263;-70
2023/09/16 03:18:46;;;;;;;;;;;;;;;-140.72;100.00;52687.13;5060848;28;19917;-70
2023/09/16 03:21:12;;;;;;;;;;;;;;;-140.72;100.00;52681.03;5057354;28;19925;-70
2023/09/16 03:23:37;;;;;;;;;;;;;;;-140.72;100.00;52670.88;5054178;28;19924;-70
2023/09/16 03:26:03;;;;;;;;;;;;;;;-140.72;100.00;52634.38;5069549;28;19920;-70
2023/09/16 03:28:28;;;;;;;;;;;;;;;-140.72;100.00;52650.59;5068277;28;19917;-70
2023/09/16 03:30:53;;;;;;;;;;;;;;;-140.72;100.00;52670.88;5069778;28;20026;-70
2023/09/16 03:33:18;;;;;;;;;;;;;;;-140.72;100.00;52658.72;5055388;28;20008;-74
2023/09/16 03:35:43;;;;;;;;;;;;;;;-140.72;100.00;52624.22;5066679;28;20291;-70
2023/09/16 03:38:09;;;;;;;;;;;;;;;-140.72;100.00;52648.56;5063003;28;20306;-70
2023/09/16 03:40:34;;;;;;;;;;;;;;;-140.72;100.00;52650.59;5068078;28;20263;-70
2023/09/16 03:42:59;;;;;;;;;;;;;;;-140.72;100.00;52638.41;5086310;28;20003;-70
2023/09/16 03:45:24;;;;;;;;;;;;;;;-140.72;100.00;52654.66;5071181;28;19920;-70
2023/09/16 03:47:50;;;;;;;;;;;;;;;-140.72;100.00;52656.69;5078746;28;19986;-70
2023/09/16 03:50:15;;;;;;;;;;;;;;;-140.72;100.00;52634.38;5073661;28;19928;-70
2023/09/16 03:52:40;;;;;;;;;;;;;;;-140.72;100.00;52648.56;5077826;28;20440;-69
2023/09/16 03:55:05;;;;;;;;;;;;;;;-140.72;100.00;52666.84;5075955;28;20367;-70
2023/09/16 03:57:31;;;;;;;;;;;;;;;-140.72;100.00;52670.88;5083329;28;20370;-70
2023/09/16 03:59:56;;;;;;;;;;;;;;;-140.72;100.00;52654.66;5080739;28;19958;-70
2023/09/16 04:02:21;;;;;;;;;;;;;;;-140.72;100.00;52685.09;5077087;28;20006;-70
2023/09/16 04:04:46;;;;;;;;;;;;;;;-140.72;100.00;52666.84;5076019;28;19932;-70
2023/09/16 04:07:11;;;;;;;;;;;;;;;-140.72;100.00;52618.13;5072284;28;19927;-70
2023/09/16 04:09:37;;;;;;;;;;;;;;;-140.72;100.00;52679.00;5070262;28;19921;-70
2023/09/16 04:12:02;;;;;;;;;;;;;;;-140.72;100.00;52658.72;5057441;28;19921;-70
2023/09/16 04:14:28;;;;;;;;;;;;;;;-140.72;100.00;52715.53;5067576;28;19917;-70
2023/09/16 04:16:53;;;;;;;;;;;;;;;-140.72;100.00;52658.72;5059560;28;19990;-70
2023/09/16 04:19:18;;;;;;;;;;;;;;;-140.72;100.00;52681.03;5064164;28;19974;-70
2023/09/16 04:21:46;;;;;;;;;;;;;;;-140.72;100.00;52668.84;5075555;28;19920;-70
2023/09/16 04:24:11;;;;;;;;;;;;;;;-140.72;100.00;52689.16;5068695;28;19924;-70
2023/09/16 04:26:37;;;;;;;;;;;;;;;-140.72;100.00;52670.88;5070182;28;19920;-70
2023/09/16 04:29:02;;;;;;;;;;;;;;;-140.72;100.00;52656.69;5072152;28;19917;-70
2023/09/16 04:31:29;;;;;;;;;;;;;;;-140.72;100.00;52638.41;5067329;28;20008;-70
2023/09/16 04:33:55;;;;;;;;;;;;;;;-140.72;100.00;52652.63;5076665;28;19960;-70
2023/09/16 04:36:20;;;;;;;;;;;;;;;-140.72;100.00;52668.84;5070726;28;20422;-70
2023/09/16 04:38:46;;;;;;;;;;;;;;;-140.72;100.00;52674.94;5076045;28;19927;-70
2023/09/16 04:41:13;;;;;;;;;;;;;;;-140.72;100.00;52656.69;5072944;28;19974;-70
2023/09/16 04:43:38;;;;;;;;;;;;;;;-140.72;100.00;52691.19;5072568;28;19974;-70
2023/09/16 04:46:03;;;;;;;;;;;;;;;-140.72;100.00;52695.25;5070648;28;19921;-70
2023/09/16 04:48:30;;;;;;;;;;;;;;;-140.72;100.00;52693.22;5061161;28;19920;-70
2023/09/16 04:50:56;;;;;;;;;;;;;;;-140.72;100.00;52672.91;5072513;28;19920;-70
2023/09/16 04:53:21;;;;;;;;;;;;;;;-140.72;100.00;52672.91;5062336;28;19943;-69
2023/09/16 04:55:46;;;;;;;;;;;;;;;-140.72;100.00;52687.13;5067828;28;19925;-69
2023/09/16 04:58:11;;;;;;;;;;;;;;;-140.72;100.00;52691.19;5075449;28;20061;-69
2023/09/16 05:00:38;;;;;;;;;;;;;;;-140.72;100.00;52674.94;5063040;28;19974;-70
2023/09/16 05:03:04;;;;;;;;;;;;;;;-140.72;100.00;52697.28;5058934;28;20434;-69
2023/09/16 05:05:29;;;;;;;;;;;;;;;-140.72;100.00;52691.19;5072262;28;19960;-69
2023/09/16 05:07:54;;;;;;;;;;;;;;;-140.72;100.00;52674.94;5061172;28;20005;-69
2023/09/16 05:10:20;;;;;;;;;;;;;;;-140.72;100.00;52691.19;5060117;28;19917;-69
2023/09/16 05:12:45;;;;;;;;;;;;;;;-140.72;100.00;52691.19;5068562;28;20466;-70
2023/09/16 05:15:10;;;;;;;;;;;;;;;-140.72;100.00;52689.16;5073354;28;19917;-69
2023/09/16 05:17:37;;;;;;;;;;;;;;;-140.72;100.00;52723.66;5067170;28;19936;-70
2023/09/16 05:20:02;;;;;;;;;;;;;;;-140.72;100.00;52707.41;5061492;28;20007;-69
2023/09/16 05:22:27;;;;;;;;;;;;;;;-140.72;100.00;52689.16;5064480;28;19959;-70
2023/09/16 05:24:53;;;;;;;;;;;;;;;-140.72;100.00;52687.13;5065450;28;19916;-70
2023/09/16 05:27:18;;;;;;;;;;;;;;;-140.72;100.00;52699.31;5080451;28;20314;-69
2023/09/16 05:29:44;;;;;;;;;;;;;;;-140.72;100.00;52685.09;5085487;28;20286;-69
2023/09/16 05:32:09;;;;;;;;;;;;;;;-140.72;100.00;52723.66;5071793;28;20286;-70
2023/09/16 05:34:34;;;;;;;;;;;;;;;-140.72;100.00;52699.31;5072199;28;19920;-70
2023/09/16 05:36:59;;;;;;;;;;;;;;;-140.72;100.00;52687.13;5067213;28;19927;-69
2023/09/16 05:39:25;;;;;;;;;;;;;;;-140.72;100.00;52725.69;5067401;28;19920;-69
2023/09/16 05:41:50;;;;;;;;;;;;;;;-140.72;100.00;52662.78;5081119;28;20021;-70
2023/09/16 05:44:19;;;;;;;;;;;;;;;-140.72;100.00;52697.28;5059420;28;19917;-70
2023/09/16 05:46:45;;;;;;;;;;;;;;;-140.72;100.00;52689.16;5071105;28;20287;-69
2023/09/16 05:49:11;;;;;;;;;;;;;;;-140.72;100.00;52705.38;5072710;28;19995;-69
2023/09/16 05:51:36;;;;;;;;;;;;;;;-140.72;100.00;52679.00;5067622;28;20375;-69
2023/09/16 05:54:01;;;;;;;;;;;;;;;-140.72;100.00;52681.03;5070141;28;19928;-69
2023/09/16 05:56:27;;;;;;;;;;;;;;;-140.72;100.00;52679.00;5065451;28;20011;-70
2023/09/16 05:58:52;;;;;;;;;;;;;;;-140.72;100.00;52695.25;5064311;28;19994;-69
2023/09/16 06:01:17;;;;;;;;;;;;;;;-140.72;100.00;52691.19;5071615;28;20427;-69
2023/09/16 06:03:42;;;;;;;;;;;;;;;-140.72;100.00;52679.00;5072058;28;20453;-69
2023/09/16 06:06:08;;;;;;;;;;;;;;;-140.72;100.00;52699.31;5065649;28;20011;-69
2023/09/16 06:08:33;;;;;;;;;;;;;;;-140.72;100.00;52689.16;5081270;28;20038;-69
2023/09/16 06:10:58;;;;;;;;;;;;;;;-140.72;100.00;52681.03;5067678;28;20401;-69
2023/09/16 06:13:24;;;;;;;;;;;;;;;-140.72;100.00;52713.50;5075449;28;19917;-69
2023/09/16 06:15:49;;;;;;;;;;;;;;;-140.72;100.00;52674.94;5065616;28;19928;-69
2023/09/16 06:18:14;;;;;;;;;;;;;;;-140.72;100.00;52650.59;5068546;28;19923;-69
2023/09/16 06:20:40;;;;;;;;;;;;;;;-140.72;100.00;52687.13;5075874;28;19926;-69
2023/09/16 06:23:05;;;;;;;;;;;;;;;-140.72;100.00;52652.63;5069251;28;19963;-69
2023/09/16 06:25:31;;;;;;;;;;;;;;;-140.72;100.00;52693.22;5065842;28;19943;-69
2023/09/16 06:27:58;;;;;;;;;;;;;;;-140.72;100.00;52666.84;5066319;28;19916;-69
2023/09/16 06:30:23;;;;;;;;;;;;;;;-140.72;100.00;52668.84;5092423;28;19920;-68
2023/09/16 06:32:48;;;;;;;;;;;;;;;-140.72;100.00;52672.91;5073466;28;20279;-69
2023/09/16 06:35:13;;;;;;;;;;;;;;;-140.72;100.00;52660.75;5066231;28;19921;-69
2023/09/16 06:37:39;;;;;;;;;;;;;;;-140.72;100.00;52672.91;5079620;28;19921;-69
2023/09/16 06:40:04;;;;;;;;;;;;;;;-140.72;100.00;52662.78;5071795;28;20475;-68
2023/09/16 06:42:29;;;;;;;;;;;;;;;-140.72;100.00;52636.38;5073920;28;19934;-69
2023/09/16 06:44:55;;;;;;;;;;;;;;;-140.72;100.00;52646.53;5083110;28;19927;-69
2023/09/16 06:47:25;;;;;;;;;;;;;;;-140.72;100.00;52656.69;5076616;28;19917;-69
2023/09/16 06:49:50;;;;;;;;;;;;;;;-140.72;100.00;52654.66;5079698;28;19969;-69
2023/09/16 06:52:16;;;;;;;;;;;;;;;-140.72;100.00;52642.47;5080635;28;20450;-69
2023/09/16 06:54:41;;;;;;;;;;;;;;;-140.72;100.00;52654.66;5074509;28;19939;-69
2023/09/16 06:57:08;;;;;;;;;;;;;;;-140.72;100.00;52620.16;5081043;28;20190;-69
2023/09/16 06:59:33;;;;;;;;;;;;;;;-140.72;100.00;52660.75;5078005;28;19925;-68
2023/09/16 07:01:58;;;;;;;;;;;;;;;-140.72;100.00;52650.59;5073425;28;20267;-69
2023/09/16 07:04:26;;;;;;;;;;;;;;;-140.72;100.00;52622.19;5061482;28;20333;-69
2023/09/16 07:06:52;;;;;;;;;;;;;;;-140.72;100.00;52614.06;5072373;28;19924;-69
2023/09/16 07:09:17;;;;;;;;;;;;;;;-140.72;100.00;52610.00;5066738;28;19920;-70
2023/09/16 07:11:42;;;;;;;;;;;;;;;-140.72;100.00;52638.41;5068855;28;19917;-69
2023/09/16 07:14:07;;;;;;;;;;;;;;;-140.72;100.00;52595.81;5070924;28;19948;-70
2023/09/16 07:16:38;;;;;;;;;;;;;;;-140.72;100.00;52603.94;5073129;28;20043;-69
2023/09/16 07:19:03;;;;;;;;;;;;;;;-140.72;100.00;52597.84;5073039;28;20335;-69
2023/09/16 07:21:28;;;;;;;;;;;;;;;-140.72;100.00;52624.22;5055582;28;19952;-70
2023/09/16 07:23:54;;;;;;;;;;;;;;;-140.72;100.00;52620.16;5062091;28;19920;-69
2023/09/16 07:26:19;;;;;;;;;;;;;;;-140.72;100.00;52632.34;5089176;28;20394;-69
2023/09/16 07:28:44;;;;;;;;;;;;;;;-140.72;100.00;52581.59;5087942;28;20267;-69
2023/09/16 07:31:09;;;;;;;;;;;;;;;-140.72;100.00;52595.81;5074194;28;20397;-69
2023/09/16 07:33:35;;;;;;;;;;;;;;;-140.72;100.00;52640.44;5067720;28;19929;-69
2023/09/16 07:36:00;;;;;;;;;;;;;;;-140.72;100.00;52575.50;5062388;28;20341;-69
2023/09/16 07:38:25;;;;;;;;;;;;;;;-140.72;100.00;52591.75;5064735;28;19921;-69
2023/09/16 07:40:51;;;;;;;;;;;;;;;-140.72;100.00;52620.16;5073578;28;19950;-69
2023/09/16 07:43:17;;;;;;;;;;;;;;;-140.72;100.00;52614.06;5074396;28;19963;-69
2023/09/16 07:45:42;;;;;;;;;;;;;;;-140.72;100.00;52603.94;5067768;28;19921;-69
2023/09/16 07:48:09;;;;;;;;;;;;;;;-140.72;100.00;52577.53;5065698;28;20768;-69
2023/09/16 07:50:34;;;;;;;;;;;;;;;-140.72;100.00;52597.84;5083986;28;20378;-69
2023/09/16 07:53:00;;;;;;;;;;;;;;;-140.72;100.00;52573.50;5073600;28;19921;-69
2023/09/16 07:55:25;;;;;;;;;;;;;;;-140.72;100.00;52559.28;5068610;28;19925;-69
2023/09/16 07:57:50;;;;;;;;;;;;;;;-140.72;100.00;52573.50;5054798;28;19970;-69
2023/09/16 08:00:16;;;;;;;;;;;;;;;-140.72;100.00;52565.38;5066635;28;19939;-69
2023/09/16 08:02:41;;;;;;;;;;;;;;;-140.72;100.00;52571.47;5064397;28;19924;-70
2023/09/16 08:05:06;;;;;;;;;;;;;;;-140.72;100.00;52541.03;5072802;28;20397;-70
2023/09/16 08:07:31;;;;;;;;;;;;;;;-140.72;100.00;52553.19;5064206;28;19923;-70
2023/09/16 08:09:58;;;;;;;;;;;;;;;-140.72;100.00;52575.50;5063483;28;19926;-70
2023/09/16 08:12:23;;;;;;;;;;;;;;;-140.72;100.00;52575.50;5065384;28;19921;-69
2023/09/16 08:14:49;;;;;;;;;;;;;;;-140.72;100.00;52559.28;5068704;28;20496;-70
2023/09/16 08:17:14;;;;;;;;;;;;;;;-140.72;100.00;52528.84;5071507;28;19974;-70
2023/09/16 08:19:40;;;;;;;;;;;;;;;-140.72;100.00;52551.16;5073709;28;19955;-70
2023/09/16 08:22:05;;;;;;;;;;;;;;;-140.72;100.00;52561.31;5072136;28;20011;-70
2023/09/16 08:24:30;;;;;;;;;;;;;;;-140.72;100.00;52545.06;5069257;28;19962;-70
2023/09/16 08:26:55;;;;;;;;;;;;;;;-140.72;100.00;52547.09;5085125;28;20006;-70
2023/09/16 08:29:21;;;;;;;;;;;;;;;-140.72;100.00;52516.66;5071105;28;19925;-70
2023/09/16 08:31:46;;;;;;;;;;;;;;;-140.72;100.00;52516.66;5078032;28;19916;-70
2023/09/16 08:34:11;;;;;;;;;;;;;;;-140.72;100.00;52543.03;5075319;28;20326;-70
2023/09/16 08:36:36;;;;;;;;;;;;;;;-140.72;100.00;52508.56;5079611;28;20363;-70
2023/09/16 08:39:01;;;;;;;;;;;;;;;-140.72;100.00;52476.09;5073704;28;20379;-70
2023/09/16 08:41:34;;;;;;;;;;;;;;;-140.72;100.00;52508.56;5077340;28;19927;-70
2023/09/16 08:44:02;;;;;;;;;;;;;;;-140.72;100.00;52453.75;5073530;28;20307;-70
2023/09/16 08:46:28;;;;;;;;;;;;;;;-140.72;100.00;52455.78;5077976;28;19927;-70
2023/09/16 08:48:54;;;;;;;;;;;;;;;-140.72;100.00;52480.16;5059275;28;19917;-70
2023/09/16 08:51:21;;;;;;;;;;;;;;;-140.72;100.00;52435.50;5061422;28;19924;-70
2023/09/16 08:53:47;;;;;;;;;;;;;;;-140.72;100.00;52405.06;5053712;28;19917;-70
2023/09/16 08:56:12;;;;;;;;;;;;;;;-140.72;100.00;52394.91;5069505;28;20397;-70
2023/09/16 08:58:41;;;;;;;;;;;;;;;-140.72;100.00;52388.84;5083483;28;19943;-70
2023/09/16 09:01:06;;;;;;;;;;;;;;;-140.72;100.00;52362.44;5059857;28;19920;-70
2023/09/16 09:03:32;;;;;;;;;;;;;;;-140.72;100.00;52325.94;5079575;28;20282;-70
2023/09/16 09:05:58;;;;;;;;;;;;;;;-140.72;100.00;52321.88;5069591;28;19921;-70
2023/09/16 09:08:23;;;;;;;;;;;;;;;-140.72;100.00;52299.56;5065126;28;19924;-70
2023/09/16 09:10:48;;;;;;;;;;;;;;;-140.72;100.00;52285.34;5064498;28;19927;-70
2023/09/16 09:13:14;;;;;;;;;;;;;;;-140.72;100.00;52228.53;5059395;28;19925;-70
2023/09/16 09:15:43;;;;;;;;;;;;;;;-140.72;100.00;52230.56;5070767;28;19951;-71
2023/09/16 09:18:10;;;;;;;;;;;;;;;-140.72;100.00;52242.75;5053998;28;19917;-70
2023/09/16 09:20:36;;;;;;;;;;;;;;;-140.72;100.00;52234.63;5064204;28;19921;-69
2023/09/16 09:23:02;;;;;;;;;;;;;;;-140.72;32.35;52159.56;5060861;28;19959;-69
2023/09/16 09:25:28;;;;;;;;;;;;;;;-140.72;0.00;52204.19;5072443;28;20437;-69
2023/09/16 09:27:55;;;;;;;;;;;;;;;-140.72;0.00;52177.81;5070571;28;19952;-69
2023/09/16 09:30:26;;;;;;;;;;;;;;;-140.72;0.00;52161.56;5065805;28;19920;-69
2023/09/16 09:32:52;;;;;;;;;;;;;;;-140.72;0.00;52163.59;5079420;28;19917;-69
2023/09/16 09:35:20;;;;;;;;;;;;;;;-140.72;0.00;52151.44;5062051;28;19947;-69
2023/09/16 09:37:47;;;;;;;;;;;;;;;-140.72;0.00;52161.56;5062868;28;19927;-69
2023/09/16 09:40:12;;;;;;;;;;;;;;;-140.72;0.00;52175.78;5062792;28;19921;-69
2023/09/16 09:42:40;;;;;;;;;;;;;;;-140.72;0.00;52167.66;5071551;28;19920;-69
2023/09/16 09:45:05;;;;;;;;;;;;;;;-140.72;0.00;52121.00;5073634;28;19917;-69
2023/09/16 09:47:31;;;;;;;;;;;;;;;-140.72;0.00;52151.44;5055958;28;19928;-69
2023/09/16 09:49:57;;;;;;;;;;;;;;;-140.72;0.00;52143.31;5068702;28;19921;-70
2023/09/16 09:52:22;;;;;;;;;;;;;;;-140.72;0.00;52108.81;5067003;28;20019;-70
2023/09/16 09:54:50;;;;;;;;;;;;;;;-140.72;0.00;52143.31;5063402;28;20011;-70
2023/09/16 09:57:16;;;;;;;;;;;;;;;-140.72;0.00;52135.19;5069744;28;19958;-70
2023/09/16 09:59:41;;;;;;;;;;;;;;;-140.72;0.00;52185.94;5081742;28;19947;-70
2023/09/16 10:02:07;;;;;;;;;;;;;;;-140.72;0.00;52149.41;5071806;28;19928;-69
2023/09/16 10:04:32;;;;;;;;;;;;;;;-140.72;0.00;52125.06;5089873;28;19962;-70
2023/09/16 10:07:00;;;;;;;;;;;;;;;-140.72;0.00;52102.75;5072492;28;20003;-70
2023/09/16 10:09:25;;;;;;;;;;;;;;;-140.72;0.00;52108.81;5065809;28;19942;-70
2023/09/16 10:11:50;;;;;;;;;;;;;;;-140.72;0.00;52092.59;5070146;28;19920;-70
2023/09/16 10:14:16;;;;;;;;;;;;;;;-140.72;0.00;52086.50;5066572;28;19924;-70
2023/09/16 10:16:42;;;;;;;;;;;;;;;-140.72;0.00;52118.97;5075165;28;19952;-70
2023/09/16 10:19:09;;;;;;;;;;;;;;;-140.72;0.00;52098.69;5054055;28;20375;-71
2023/09/16 10:21:35;;;;;;;;;;;;;;;-140.72;0.00;52090.56;5072397;28;19920;-69
2023/09/16 10:24:01;;;;;;;;;;;;;;;-140.72;0.00;52047.97;5071205;28;20001;-68
2023/09/16 10:26:26;;;;;;;;;;;;;;;-140.72;0.00;52094.63;5068740;28;19982;-69
2023/09/16 10:28:53;;;;;;;;;;;;;;;-140.72;0.00;52049.97;5077073;28;19923;-69
2023/09/16 10:31:18;;;;;;;;;;;;;;;-140.72;0.00;52082.44;5080627;28;20387;-69
2023/09/16 10:33:45;;;;;;;;;;;;;;;-140.72;0.00;52092.59;5067220;28;19936;-69
2023/09/16 10:36:11;;;;;;;;;;;;;;;-140.72;0.00;52043.91;5075533;28;20386;-70
2023/09/16 10:38:37;;;;;;;;;;;;;;;-140.72;0.00;52021.56;5076242;28;20333;-70
2023/09/16 10:41:04;;;;;;;;;;;;;;;-140.72;0.00;51978.97;5072377;28;19932;-70
2023/09/16 10:43:30;;;;;;;;;;;;;;;-140.72;0.00;51912.03;5076112;28;20351;-69
2023/09/16 10:45:56;;;;;;;;;;;;;;;-140.72;0.00;51867.38;5061607;28;19921;-69
2023/09/16 10:48:21;;;;;;;;;;;;;;;-140.72;0.00;51867.38;5075090;28;19924;-69
2023/09/16 10:50:47;;;;;;;;;;;;;;;-140.72;0.00;51834.91;5062659;28;19916;-69
2023/09/16 10:53:22;;;;;;;;;;;;;;;-140.72;0.00;51847.09;5061706;28;20379;-70
2023/09/16 10:55:50;;;;;;;;;;;;;;;-140.72;0.00;51770.00;5080482;28;20002;-70
2023/09/16 10:58:21;;;;;;;;;;;;;;;-140.72;0.00;51784.19;5064614;28;20008;-70
2023/09/16 11:00:49;;;;;;;;;;;;;;;-140.72;0.00;51741.59;5075579;28;19920;-70
2023/09/16 11:03:14;;;;;;;;;;;;;;;-140.72;0.00;51812.59;5077676;28;19916;-70
2023/09/16 11:05:40;;;;;;;;;;;;;;;-140.72;0.00;51786.22;5086066;28;19920;-69
2023/09/16 11:08:06;;;;;;;;;;;;;;;-140.72;0.00;51774.06;5079722;28;20409;-70
2023/09/16 11:10:31;;;;;;;;;;;;;;;-140.72;0.00;51725.38;5077736;28;20293;-70
2023/09/16 11:12:57;;;;;;;;;;;;;;;-140.72;0.00;51711.16;5069821;28;19943;-70
2023/09/16 11:15:29;;;;;;;;;;;;;;;-140.72;0.00;51692.91;5068994;28;20054;-70
2023/09/16 11:18:04;;;;;;;;;;;;;;;-140.72;0.00;51705.06;5057760;28;19920;-70
2023/09/16 11:20:33;;;;;;;;;;;;;;;-140.72;0.00;51656.38;5069902;28;19920;-70
2023/09/16 11:23:02;;;;;;;;;;;;;;;-140.72;0.00;51664.50;5075278;28;19920;-70
2023/09/16 11:25:34;;;;;;;;;;;;;;;-140.72;0.00;51680.72;5081979;28;20054;-70
2023/09/16 11:28:05;;;;;;;;;;;;;;;-140.72;0.00;51617.84;5078353;28;20015;-70
2023/09/16 11:30:32;;;;;;;;;;;;;;;-140.72;0.00;51587.41;5067409;28;19920;-69
2023/09/16 11:32:57;;;;;;;;;;;;;;;-140.72;0.00;51605.66;5072211;28;19920;-70
2023/09/16 11:35:26;;;;;;;;;;;;;;;-140.72;0.00;51605.66;5073124;28;20398;-70
2023/09/16 11:37:51;;;;;;;;;;;;;;;-140.72;0.00;51563.06;5084324;28;19920;-70
2023/09/16 11:40:18;;;;;;;;;;;;;;;-140.72;0.00;51561.03;5092963;28;20010;-71
2023/09/16 11:42:43;;;;;;;;;;;;;;;-140.72;0.00;51611.75;5072841;28;19917;-71
2023/09/16 11:45:10;;;;;;;;;;;;;;;-140.72;0.00;51642.19;5083864;28;19920;-70
2023/09/16 11:47:35;;;;;;;;;;;;;;;-140.72;0.00;51640.16;5076477;28;20015;-70
2023/09/16 11:50:01;;;;;;;;;;;;;;;-140.72;0.00;51569.16;5091477;28;20014;-71
2023/09/16 11:52:26;;;;;;;;;;;;;;;-140.72;0.00;51583.34;5075669;28;19924;-69
2023/09/16 11:54:52;;;;;;;;;;;;;;;-140.72;0.00;51628.00;5079329;28;19916;-69
2023/09/16 11:57:17;;;;;;;;;;;;;;;-140.72;0.00;51652.34;5072068;28;20398;-70
2023/09/16 11:59:44;;;;;;;;;;;;;;;-140.72;0.00;51636.09;5069965;28;19939;-70
2023/09/16 12:02:10;;;;;;;;;;;;;;;-140.72;0.00;51625.97;5076107;28;19951;-70
2023/09/16 12:04:36;;;;;;;;;;;;;;;-140.72;0.00;51668.56;5073908;28;20306;-70
2023/09/16 12:07:02;;;;;;;;;;;;;;;-140.72;0.00;51640.16;5064787;28;20015;-70
2023/09/16 12:09:28;;;;;;;;;;;;;;;-140.72;0.00;51607.69;5074449;28;19946;-70
2023/09/16 12:11:54;;;;;;;;;;;;;;;-140.72;0.00;51581.31;5074859;28;19923;-70
2023/09/16 12:14:21;;;;;;;;;;;;;;;-140.72;0.00;51583.34;5068141;28;20383;-69